sensor_id;sensor_type;location;lat;lon;timestamp;pressure;altitude;pressure_sealevel;temperature
76713;BMP280;65640;43.154;25.658;2023-03-20T00:00:31;101032.53;;;4.86
76713;BMP280;65640;43.154;25.658;2023-03-20T00:02:57;101037.94;;;4.84
76713;BMP280;65640;43.154;25.658;2023-03-20T00:05:24;101027.34;;;4.86
76713;BMP280;65640;43.154;25.658;2023-03-20T00:07:50;101029.97;;;4.79
76713;BMP280;65640;43.154;25.658;2023-03-20T00:10:18;101024.91;;;4.66
76713;BMP280;65640;43.154;25.658;2023-03-20T00:12:46;101023.72;;;4.69
76713;BMP280;65640;43.154;25.658;2023-03-20T00:15:22;101022.28;;;4.73
76713;BMP280;65640;43.154;25.658;2023-03-20T00:17:48;101013.03;;;4.77
76713;BMP280;65640;43.154;25.658;2023-03-20T00:20:15;101016.81;;;4.81
76713;BMP280;65640;43.154;25.658;2023-03-20T00:22:41;101008.94;;;4.69
76713;BMP280;65640;43.154;25.658;2023-03-20T00:25:11;101012.16;;;4.64
76713;BMP280;65640;43.154;25.658;2023-03-20T00:27:37;101004.38;;;4.64
76713;BMP280;65640;43.154;25.658;2023-03-20T00:30:12;101004.56;;;4.70
76713;BMP280;65640;43.154;25.658;2023-03-20T00:32:40;101002.03;;;4.56
76713;BMP280;65640;43.154;25.658;2023-03-20T00:35:38;100995.50;;;4.54
76713;BMP280;65640;43.154;25.658;2023-03-20T00:38:03;101000.88;;;4.52
76713;BMP280;65640;43.154;25.658;2023-03-20T00:40:30;100993.38;;;4.44
76713;BMP280;65640;43.154;25.658;2023-03-20T00:42:59;100998.22;;;4.34
76713;BMP280;65640;43.154;25.658;2023-03-20T00:45:26;100994.03;;;4.33
76713;BMP280;65640;43.154;25.658;2023-03-20T00:47:52;100992.84;;;4.36
76713;BMP280;65640;43.154;25.658;2023-03-20T00:50:23;100995.44;;;4.36
76713;BMP280;65640;43.154;25.658;2023-03-20T00:52:50;100984.41;;;4.40
76713;BMP280;65640;43.154;25.658;2023-03-20T00:55:21;100986.84;;;4.35
76713;BMP280;65640;43.154;25.658;2023-03-20T00:57:49;100988.44;;;4.36
76713;BMP280;65640;43.154;25.658;2023-03-20T01:00:23;100988.38;;;4.43
76713;BMP280;65640;43.154;25.658;2023-03-20T01:02:52;100990.25;;;4.36
76713;BMP280;65640;43.154;25.658;2023-03-20T01:05:19;100985.25;;;4.34
76713;BMP280;65640;43.154;25.658;2023-03-20T01:07:45;100982.94;;;4.26
76713;BMP280;65640;43.154;25.658;2023-03-20T01:10:11;100977.56;;;4.21
76713;BMP280;65640;43.154;25.658;2023-03-20T01:12:39;100977.56;;;4.21
76713;BMP280;65640;43.154;25.658;2023-03-20T01:15:24;100978.38;;;4.21
76713;BMP280;65640;43.154;25.658;2023-03-20T01:17:51;100982.16;;;4.19
76713;BMP280;65640;43.154;25.658;2023-03-20T01:20:25;100971.66;;;4.14
76713;BMP280;65640;43.154;25.658;2023-03-20T01:22:51;100971.06;;;4.12
76713;BMP280;65640;43.154;25.658;2023-03-20T01:25:17;100969.88;;;4.08
76713;BMP280;65640;43.154;25.658;2023-03-20T01:27:47;100960.16;;;4.03
76713;BMP280;65640;43.154;25.658;2023-03-20T01:30:22;100964.53;;;4.03
76713;BMP280;65640;43.154;25.658;2023-03-20T01:32:48;100965.94;;;3.99
76713;BMP280;65640;43.154;25.658;2023-03-20T01:35:16;100968.94;;;3.96
76713;BMP280;65640;43.154;25.658;2023-03-20T01:37:42;100969.53;;;3.98
76713;BMP280;65640;43.154;25.658;2023-03-20T01:40:58;100966.78;;;3.93
76713;BMP280;65640;43.154;25.658;2023-03-20T01:42:59;100972.97;;;3.92
76713;BMP280;65640;43.154;25.658;2023-03-20T01:45:33;100973.75;;;3.92
76713;BMP280;65640;43.154;25.658;2023-03-20T01:48:07;100964.00;;;3.87
76713;BMP280;65640;43.154;25.658;2023-03-20T01:50:37;100962.88;;;3.77
76713;BMP280;65640;43.154;25.658;2023-03-20T01:53:11;100966.25;;;3.77
76713;BMP280;65640;43.154;25.658;2023-03-20T01:55:40;100967.25;;;3.76
76713;BMP280;65640;43.154;25.658;2023-03-20T01:58:13;100970.69;;;3.70
76713;BMP280;65640;43.154;25.658;2023-03-20T02:00:40;100968.91;;;3.64
76713;BMP280;65640;43.154;25.658;2023-03-20T02:03:07;100967.69;;;3.67
76713;BMP280;65640;43.154;25.658;2023-03-20T02:05:33;100971.72;;;3.56
76713;BMP280;65640;43.154;25.658;2023-03-20T02:08:45;100975.13;;;3.50
76713;BMP280;65640;43.154;25.658;2023-03-20T02:10:45;100969.56;;;3.40
76713;BMP280;65640;43.154;25.658;2023-03-20T02:13:12;100961.25;;;3.38
76713;BMP280;65640;43.154;25.658;2023-03-20T02:16:06;100968.63;;;3.34
76713;BMP280;65640;43.154;25.658;2023-03-20T02:18:33;100971.78;;;3.36
76713;BMP280;65640;43.154;25.658;2023-03-20T02:27:20;100965.22;;;3.34
76713;BMP280;65640;43.154;25.658;2023-03-20T02:38:33;100958.25;;;3.28
76713;BMP280;65640;43.154;25.658;2023-03-20T02:41:25;100954.88;;;3.27
76713;BMP280;65640;43.154;25.658;2023-03-20T02:44:06;100962.44;;;3.29
76713;BMP280;65640;43.154;25.658;2023-03-20T02:52:19;100957.50;;;3.21
76713;BMP280;65640;43.154;25.658;2023-03-20T03:00:16;100953.94;;;3.15
76713;BMP280;65640;43.154;25.658;2023-03-20T03:03:05;100951.56;;;3.13
76713;BMP280;65640;43.154;25.658;2023-03-20T03:05:39;100947.38;;;3.12
76713;BMP280;65640;43.154;25.658;2023-03-20T03:08:08;100953.94;;;3.08
76713;BMP280;65640;43.154;25.658;2023-03-20T03:10:41;100950.75;;;3.06
76713;BMP280;65640;43.154;25.658;2023-03-20T03:13:13;100950.16;;;3.04
76713;BMP280;65640;43.154;25.658;2023-03-20T03:15:42;100952.34;;;3.07
76713;BMP280;65640;43.154;25.658;2023-03-20T03:18:19;100950.38;;;3.09
76713;BMP280;65640;43.154;25.658;2023-03-20T03:20:47;100946.97;;;3.02
76713;BMP280;65640;43.154;25.658;2023-03-20T03:23:40;100942.00;;;3.01
76713;BMP280;65640;43.154;25.658;2023-03-20T03:26:12;100944.59;;;2.94
76713;BMP280;65640;43.154;25.658;2023-03-20T03:28:54;100946.63;;;2.86
76713;BMP280;65640;43.154;25.658;2023-03-20T03:31:21;100936.28;;;2.79
76713;BMP280;65640;43.154;25.658;2023-03-20T03:33:50;100937.88;;;2.87
76713;BMP280;65640;43.154;25.658;2023-03-20T03:41:43;100926.53;;;2.81
76713;BMP280;65640;43.154;25.658;2023-03-20T03:47:12;100938.66;;;2.80
76713;BMP280;65640;43.154;25.658;2023-03-20T03:49:42;100932.69;;;2.87
76713;BMP280;65640;43.154;25.658;2023-03-20T03:52:15;100940.84;;;2.84
76713;BMP280;65640;43.154;25.658;2023-03-20T03:54:46;100932.28;;;2.83
76713;BMP280;65640;43.154;25.658;2023-03-20T03:57:15;100939.47;;;2.88
76713;BMP280;65640;43.154;25.658;2023-03-20T03:59:48;100937.28;;;2.85
76713;BMP280;65640;43.154;25.658;2023-03-20T04:02:16;100935.28;;;2.80
76713;BMP280;65640;43.154;25.658;2023-03-20T04:04:47;100943.63;;;2.82
76713;BMP280;65640;43.154;25.658;2023-03-20T04:07:14;100946.81;;;2.77
76713;BMP280;65640;43.154;25.658;2023-03-20T04:09:40;100939.44;;;2.74
76713;BMP280;65640;43.154;25.658;2023-03-20T04:12:05;100939.25;;;2.76
76713;BMP280;65640;43.154;25.658;2023-03-20T04:14:42;100947.78;;;2.76
76713;BMP280;65640;43.154;25.658;2023-03-20T04:17:08;100948.81;;;2.69
76713;BMP280;65640;43.154;25.658;2023-03-20T04:19:33;100949.41;;;2.71
76713;BMP280;65640;43.154;25.658;2023-03-20T04:21:58;100951.56;;;2.74
76713;BMP280;65640;43.154;25.658;2023-03-20T04:24:24;100955.56;;;2.70
76713;BMP280;65640;43.154;25.658;2023-03-20T04:26:50;100963.53;;;2.62
76713;BMP280;65640;43.154;25.658;2023-03-20T04:29:16;100959.75;;;2.58
76713;BMP280;65640;43.154;25.658;2023-03-20T04:31:42;100959.34;;;2.54
76713;BMP280;65640;43.154;25.658;2023-03-20T04:34:07;100953.19;;;2.55
76713;BMP280;65640;43.154;25.658;2023-03-20T04:36:32;100960.34;;;2.60
76713;BMP280;65640;43.154;25.658;2023-03-20T04:38:58;100958.94;;;2.64
76713;BMP280;65640;43.154;25.658;2023-03-20T04:41:23;100966.09;;;2.68
76713;BMP280;65640;43.154;25.658;2023-03-20T04:43:49;100965.88;;;2.76
76713;BMP280;65640;43.154;25.658;2023-03-20T04:46:14;100963.69;;;2.73
76713;BMP280;65640;43.154;25.658;2023-03-20T04:48:40;100964.13;;;2.70
76713;BMP280;65640;43.154;25.658;2023-03-20T04:51:06;100968.25;;;2.71
76713;BMP280;65640;43.154;25.658;2023-03-20T04:53:31;100963.31;;;2.83
76713;BMP280;65640;43.154;25.658;2023-03-20T04:55:56;100965.72;;;2.91
76713;BMP280;65640;43.154;25.658;2023-03-20T04:58:22;100965.47;;;3.06
76713;BMP280;65640;43.154;25.658;2023-03-20T05:00:47;100967.25;;;3.18
76713;BMP280;65640;43.154;25.658;2023-03-20T05:03:13;100968.22;;;3.31
76713;BMP280;65640;43.154;25.658;2023-03-20T05:05:38;100970.56;;;3.39
76713;BMP280;65640;43.154;25.658;2023-03-20T05:08:05;100972.53;;;3.50
76713;BMP280;65640;43.154;25.658;2023-03-20T05:10:30;100968.13;;;3.57
76713;BMP280;65640;43.154;25.658;2023-03-20T05:12:56;100974.47;;;3.68
76713;BMP280;65640;43.154;25.658;2023-03-20T05:15:21;100977.81;;;3.81
76713;BMP280;65640;43.154;25.658;2023-03-20T05:17:46;100979.16;;;3.90
76713;BMP280;65640;43.154;25.658;2023-03-20T05:20:12;100983.06;;;4.00
76713;BMP280;65640;43.154;25.658;2023-03-20T05:22:38;100988.00;;;4.14
76713;BMP280;65640;43.154;25.658;2023-03-20T05:25:03;100982.97;;;4.19
76713;BMP280;65640;43.154;25.658;2023-03-20T05:27:29;100983.66;;;4.33
76713;BMP280;65640;43.154;25.658;2023-03-20T05:29:54;100991.94;;;4.48
76713;BMP280;65640;43.154;25.658;2023-03-20T05:32:20;100995.19;;;4.69
76713;BMP280;65640;43.154;25.658;2023-03-20T05:34:45;100990.88;;;4.81
76713;BMP280;65640;43.154;25.658;2023-03-20T05:37:11;100989.16;;;4.93
76713;BMP280;65640;43.154;25.658;2023-03-20T05:39:36;100987.97;;;5.14
76713;BMP280;65640;43.154;25.658;2023-03-20T05:42:02;100995.84;;;5.25
76713;BMP280;65640;43.154;25.658;2023-03-20T05:44:27;100997.50;;;5.38
76713;BMP280;65640;43.154;25.658;2023-03-20T05:46:53;100992.06;;;5.58
76713;BMP280;65640;43.154;25.658;2023-03-20T05:49:18;100998.13;;;5.70
76713;BMP280;65640;43.154;25.658;2023-03-20T05:51:44;100999.63;;;5.89
76713;BMP280;65640;43.154;25.658;2023-03-20T05:54:09;100993.63;;;6.07
76713;BMP280;65640;43.154;25.658;2023-03-20T05:56:35;100992.75;;;6.25
76713;BMP280;65640;43.154;25.658;2023-03-20T05:59:00;100987.13;;;6.39
76713;BMP280;65640;43.154;25.658;2023-03-20T06:01:26;100985.34;;;6.51
76713;BMP280;65640;43.154;25.658;2023-03-20T06:03:52;100985.78;;;6.60
76713;BMP280;65640;43.154;25.658;2023-03-20T06:06:17;100985.66;;;6.78
76713;BMP280;65640;43.154;25.658;2023-03-20T06:08:43;100979.09;;;6.87
76713;BMP280;65640;43.154;25.658;2023-03-20T06:11:09;100979.53;;;6.96
76713;BMP280;65640;43.154;25.658;2023-03-20T06:13:34;100980.78;;;7.05
76713;BMP280;65640;43.154;25.658;2023-03-20T06:16:00;100978.03;;;7.12
76713;BMP280;65640;43.154;25.658;2023-03-20T06:18:25;100976.88;;;7.31
76713;BMP280;65640;43.154;25.658;2023-03-20T06:20:56;100974.19;;;7.54
76713;BMP280;65640;43.154;25.658;2023-03-20T06:23:22;100973.81;;;7.62
76713;BMP280;65640;43.154;25.658;2023-03-20T06:25:48;100973.09;;;7.67
76713;BMP280;65640;43.154;25.658;2023-03-20T06:28:14;100971.94;;;7.75
76713;BMP280;65640;43.154;25.658;2023-03-20T06:30:39;100974.50;;;7.86
76713;BMP280;65640;43.154;25.658;2023-03-20T06:33:05;100975.91;;;7.94
76713;BMP280;65640;43.154;25.658;2023-03-20T06:35:31;100972.59;;;7.98
76713;BMP280;65640;43.154;25.658;2023-03-20T06:37:58;100975.63;;;8.07
76713;BMP280;65640;43.154;25.658;2023-03-20T06:40:24;100964.09;;;8.20
76713;BMP280;65640;43.154;25.658;2023-03-20T06:42:49;100967.84;;;8.45
76713;BMP280;65640;43.154;25.658;2023-03-20T06:45:15;100969.88;;;8.60
76713;BMP280;65640;43.154;25.658;2023-03-20T06:47:40;100970.66;;;8.77
76713;BMP280;65640;43.154;25.658;2023-03-20T06:50:07;100970.91;;;8.98
76713;BMP280;65640;43.154;25.658;2023-03-20T06:52:33;100972.50;;;9.04
76713;BMP280;65640;43.154;25.658;2023-03-20T06:54:58;100973.97;;;9.16
76713;BMP280;65640;43.154;25.658;2023-03-20T06:57:23;100977.34;;;9.39
76713;BMP280;65640;43.154;25.658;2023-03-20T06:59:49;100968.47;;;9.40
76713;BMP280;65640;43.154;25.658;2023-03-20T07:02:14;100960.38;;;9.41
76713;BMP280;65640;43.154;25.658;2023-03-20T07:04:41;100963.91;;;9.57
76713;BMP280;65640;43.154;25.658;2023-03-20T07:07:06;100962.16;;;9.62
76713;BMP280;65640;43.154;25.658;2023-03-20T07:09:32;100964.03;;;9.67
76713;BMP280;65640;43.154;25.658;2023-03-20T07:11:57;100957.88;;;9.83
76713;BMP280;65640;43.154;25.658;2023-03-20T07:14:23;100965.72;;;9.83
76713;BMP280;65640;43.154;25.658;2023-03-20T07:16:49;100965.63;;;10.05
76713;BMP280;65640;43.154;25.658;2023-03-20T07:19:14;100968.13;;;10.27
76713;BMP280;65640;43.154;25.658;2023-03-20T07:21:40;100964.59;;;10.48
76713;BMP280;65640;43.154;25.658;2023-03-20T07:24:05;100963.06;;;10.62
76713;BMP280;65640;43.154;25.658;2023-03-20T07:26:31;100966.00;;;10.66
76713;BMP280;65640;43.154;25.658;2023-03-20T07:28:57;100963.63;;;10.69
76713;BMP280;65640;43.154;25.658;2023-03-20T07:31:25;100965.25;;;10.85
76713;BMP280;65640;43.154;25.658;2023-03-20T07:33:51;100951.72;;;11.04
76713;BMP280;65640;43.154;25.658;2023-03-20T07:36:17;100954.91;;;11.36
76713;BMP280;65640;43.154;25.658;2023-03-20T07:38:42;100956.75;;;11.41
76713;BMP280;65640;43.154;25.658;2023-03-20T07:41:08;100952.03;;;11.53
76713;BMP280;65640;43.154;25.658;2023-03-20T07:43:33;100952.81;;;11.79
76713;BMP280;65640;43.154;25.658;2023-03-20T07:46:06;100954.41;;;11.95
76713;BMP280;65640;43.154;25.658;2023-03-20T07:48:41;100955.69;;;12.18
76713;BMP280;65640;43.154;25.658;2023-03-20T07:51:06;100952.69;;;12.39
76713;BMP280;65640;43.154;25.658;2023-03-20T07:53:32;100953.38;;;12.65
76713;BMP280;65640;43.154;25.658;2023-03-20T07:55:57;100948.59;;;12.77
76713;BMP280;65640;43.154;25.658;2023-03-20T07:58:22;100948.50;;;12.87
76713;BMP280;65640;43.154;25.658;2023-03-20T08:00:48;100955.94;;;13.19
76713;BMP280;65640;43.154;25.658;2023-03-20T08:03:13;100949.75;;;13.39
76713;BMP280;65640;43.154;25.658;2023-03-20T08:05:39;100953.69;;;13.41
76713;BMP280;65640;43.154;25.658;2023-03-20T08:08:04;100955.63;;;13.60
76713;BMP280;65640;43.154;25.658;2023-03-20T08:10:30;100949.81;;;13.92
76713;BMP280;65640;43.154;25.658;2023-03-20T08:12:55;100950.38;;;14.12
76713;BMP280;65640;43.154;25.658;2023-03-20T08:15:21;100952.31;;;14.25
76713;BMP280;65640;43.154;25.658;2023-03-20T08:17:46;100953.00;;;14.36
76713;BMP280;65640;43.154;25.658;2023-03-20T08:20:13;100950.81;;;14.43
76713;BMP280;65640;43.154;25.658;2023-03-20T08:22:39;100948.84;;;14.30
76713;BMP280;65640;43.154;25.658;2023-03-20T08:25:05;100956.50;;;14.26
76713;BMP280;65640;43.154;25.658;2023-03-20T08:27:33;100956.34;;;14.42
76713;BMP280;65640;43.154;25.658;2023-03-20T08:29:58;100962.47;;;14.56
76713;BMP280;65640;43.154;25.658;2023-03-20T08:32:24;100960.78;;;14.65
76713;BMP280;65640;43.154;25.658;2023-03-20T08:34:50;100955.34;;;14.56
76713;BMP280;65640;43.154;25.658;2023-03-20T08:37:16;100942.63;;;14.63
76713;BMP280;65640;43.154;25.658;2023-03-20T08:39:41;100950.16;;;14.89
76713;BMP280;65640;43.154;25.658;2023-03-20T08:42:07;100949.31;;;15.26
76713;BMP280;65640;43.154;25.658;2023-03-20T08:44:32;100941.78;;;15.51
76713;BMP280;65640;43.154;25.658;2023-03-20T08:46:58;100942.47;;;15.71
76713;BMP280;65640;43.154;25.658;2023-03-20T08:49:24;100926.34;;;15.99
76713;BMP280;65640;43.154;25.658;2023-03-20T08:51:49;100938.06;;;16.07
76713;BMP280;65640;43.154;25.658;2023-03-20T08:54:15;100935.63;;;16.10
76713;BMP280;65640;43.154;25.658;2023-03-20T08:56:46;100932.53;;;16.31
76713;BMP280;65640;43.154;25.658;2023-03-20T08:59:11;100931.31;;;16.15
76713;BMP280;65640;43.154;25.658;2023-03-20T09:01:37;100932.00;;;16.20
76713;BMP280;65640;43.154;25.658;2023-03-20T09:04:03;100927.78;;;16.19
76713;BMP280;65640;43.154;25.658;2023-03-20T09:06:29;100923.56;;;16.18
76713;BMP280;65640;43.154;25.658;2023-03-20T09:08:55;100927.53;;;16.43
76713;BMP280;65640;43.154;25.658;2023-03-20T09:11:22;100926.59;;;16.61
76713;BMP280;65640;43.154;25.658;2023-03-20T09:13:47;100917.94;;;16.69
76713;BMP280;65640;43.154;25.658;2023-03-20T09:16:13;100910.63;;;16.88
76713;BMP280;65640;43.154;25.658;2023-03-20T09:18:38;100917.38;;;17.03
76713;BMP280;65640;43.154;25.658;2023-03-20T09:21:04;100904.44;;;17.01
76713;BMP280;65640;43.154;25.658;2023-03-20T09:23:29;100900.13;;;17.06
76713;BMP280;65640;43.154;25.658;2023-03-20T09:25:56;100909.03;;;17.10
76713;BMP280;65640;43.154;25.658;2023-03-20T09:28:21;100903.25;;;17.08
76713;BMP280;65640;43.154;25.658;2023-03-20T09:30:47;100897.09;;;17.21
76713;BMP280;65640;43.154;25.658;2023-03-20T09:33:12;100897.31;;;17.41
76713;BMP280;65640;43.154;25.658;2023-03-20T09:35:39;100901.91;;;17.58
76713;BMP280;65640;43.154;25.658;2023-03-20T09:38:04;100896.84;;;17.79
76713;BMP280;65640;43.154;25.658;2023-03-20T09:51:59;100878.63;;;18.12
76713;BMP280;65640;43.154;25.658;2023-03-20T09:54:28;100880.47;;;18.37
76713;BMP280;65640;43.154;25.658;2023-03-20T09:56:56;100873.16;;;18.60
76713;BMP280;65640;43.154;25.658;2023-03-20T09:59:24;100875.63;;;18.56
76713;BMP280;65640;43.154;25.658;2023-03-20T10:01:58;100877.19;;;18.49
76713;BMP280;65640;43.154;25.658;2023-03-20T10:04:27;100873.44;;;18.50
76713;BMP280;65640;43.154;25.658;2023-03-20T10:06:53;100870.16;;;18.61
76713;BMP280;65640;43.154;25.658;2023-03-20T10:09:25;100861.97;;;18.83
76713;BMP280;65640;43.154;25.658;2023-03-20T10:14:55;100854.09;;;19.13
76713;BMP280;65640;43.154;25.658;2023-03-20T10:19:56;100841.38;;;19.18
76713;BMP280;65640;43.154;25.658;2023-03-20T10:22:30;100837.56;;;19.28
76713;BMP280;65640;43.154;25.658;2023-03-20T10:27:35;100826.03;;;19.53
76713;BMP280;65640;43.154;25.658;2023-03-20T10:35:27;100820.50;;;20.00
76713;BMP280;65640;43.154;25.658;2023-03-20T10:40:40;100818.03;;;19.95
76713;BMP280;65640;43.154;25.658;2023-03-20T10:43:19;100819.69;;;19.66
76713;BMP280;65640;43.154;25.658;2023-03-20T10:45:50;100819.63;;;19.75
76713;BMP280;65640;43.154;25.658;2023-03-20T10:48:51;100815.31;;;20.03
76713;BMP280;65640;43.154;25.658;2023-03-20T10:51:23;100812.44;;;19.75
76713;BMP280;65640;43.154;25.658;2023-03-20T10:53:52;100813.91;;;19.64
76713;BMP280;65640;43.154;25.658;2023-03-20T10:56:35;100811.25;;;19.64
76713;BMP280;65640;43.154;25.658;2023-03-20T10:59:09;100805.41;;;19.50
76713;BMP280;65640;43.154;25.658;2023-03-20T11:01:35;100800.88;;;19.51
76713;BMP280;65640;43.154;25.658;2023-03-20T11:04:00;100797.97;;;19.64
76713;BMP280;65640;43.154;25.658;2023-03-20T11:06:31;100787.28;;;19.52
76713;BMP280;65640;43.154;25.658;2023-03-20T11:09:10;100793.28;;;19.61
76713;BMP280;65640;43.154;25.658;2023-03-20T11:11:38;100782.75;;;19.53
76713;BMP280;65640;43.154;25.658;2023-03-20T11:14:20;100776.13;;;19.79
76713;BMP280;65640;43.154;25.658;2023-03-20T11:16:48;100773.13;;;20.02
76713;BMP280;65640;43.154;25.658;2023-03-20T11:19:15;100769.69;;;20.13
76713;BMP280;65640;43.154;25.658;2023-03-20T11:24:40;100765.16;;;20.14
76713;BMP280;65640;43.154;25.658;2023-03-20T11:29:32;100753.09;;;20.40
76713;BMP280;65640;43.154;25.658;2023-03-20T11:34:37;100755.34;;;20.26
76713;BMP280;65640;43.154;25.658;2023-03-20T11:37:12;100746.03;;;20.45
76713;BMP280;65640;43.154;25.658;2023-03-20T11:39:55;100742.63;;;20.44
76713;BMP280;65640;43.154;25.658;2023-03-20T11:42:24;100739.78;;;20.28
76713;BMP280;65640;43.154;25.658;2023-03-20T11:45:15;100735.72;;;20.19
76713;BMP280;65640;43.154;25.658;2023-03-20T11:47:41;100730.00;;;20.08
76713;BMP280;65640;43.154;25.658;2023-03-20T11:50:37;100735.41;;;19.87
76713;BMP280;65640;43.154;25.658;2023-03-20T11:53:31;100733.56;;;20.00
76713;BMP280;65640;43.154;25.658;2023-03-20T11:56:13;100723.91;;;20.08
76713;BMP280;65640;43.154;25.658;2023-03-20T11:59:13;100717.66;;;20.24
76713;BMP280;65640;43.154;25.658;2023-03-20T12:01:45;100715.53;;;20.54
76713;BMP280;65640;43.154;25.658;2023-03-20T12:04:30;100714.44;;;20.67
76713;BMP280;65640;43.154;25.658;2023-03-20T12:09:45;100709.22;;;20.22
76713;BMP280;65640;43.154;25.658;2023-03-20T12:12:37;100707.78;;;20.25
76713;BMP280;65640;43.154;25.658;2023-03-20T12:17:42;100702.72;;;20.44
76713;BMP280;65640;43.154;25.658;2023-03-20T12:20:30;100696.38;;;20.24
76713;BMP280;65640;43.154;25.658;2023-03-20T12:23:10;100694.47;;;20.37
76713;BMP280;65640;43.154;25.658;2023-03-20T12:25:56;100691.38;;;20.59
76713;BMP280;65640;43.154;25.658;2023-03-20T12:28:37;100687.69;;;20.88
76713;BMP280;65640;43.154;25.658;2023-03-20T12:34:00;100683.72;;;20.70
76713;BMP280;65640;43.154;25.658;2023-03-20T12:36:31;100676.25;;;20.75
76713;BMP280;65640;43.154;25.658;2023-03-20T12:38:58;100682.56;;;20.95
76713;BMP280;65640;43.154;25.658;2023-03-20T12:41:28;100678.47;;;20.85
76713;BMP280;65640;43.154;25.658;2023-03-20T12:52:14;100667.13;;;21.44
76713;BMP280;65640;43.154;25.658;2023-03-20T12:57:41;100668.63;;;21.14
76713;BMP280;65640;43.154;25.658;2023-03-20T13:13:48;100662.78;;;20.96
76713;BMP280;65640;43.154;25.658;2023-03-20T13:21:33;100646.59;;;21.01
76713;BMP280;65640;43.154;25.658;2023-03-20T13:32:23;100639.97;;;20.95
76713;BMP280;65640;43.154;25.658;2023-03-20T13:37:41;100636.16;;;21.24
76713;BMP280;65640;43.154;25.658;2023-03-20T13:40:27;100631.91;;;21.35
76713;BMP280;65640;43.154;25.658;2023-03-20T13:42:57;100634.22;;;21.36
76713;BMP280;65640;43.154;25.658;2023-03-20T13:47:57;100624.03;;;21.11
76713;BMP280;65640;43.154;25.658;2023-03-20T13:50:26;100620.72;;;21.14
76713;BMP280;65640;43.154;25.658;2023-03-20T13:56:07;100622.81;;;21.08
76713;BMP280;65640;43.154;25.658;2023-03-20T13:58:38;100621.16;;;21.04
76713;BMP280;65640;43.154;25.658;2023-03-20T14:01:15;100620.16;;;21.08
76713;BMP280;65640;43.154;25.658;2023-03-20T14:03:44;100617.50;;;21.08
76713;BMP280;65640;43.154;25.658;2023-03-20T14:08:56;100625.63;;;21.00
76713;BMP280;65640;43.154;25.658;2023-03-20T14:14:29;100620.38;;;20.75
76713;BMP280;65640;43.154;25.658;2023-03-20T14:17:02;100612.59;;;20.82
76713;BMP280;65640;43.154;25.658;2023-03-20T14:19:28;100613.47;;;20.86
76713;BMP280;65640;43.154;25.658;2023-03-20T14:21:55;100608.78;;;20.96
76713;BMP280;65640;43.154;25.658;2023-03-20T14:24:22;100604.16;;;20.92
76713;BMP280;65640;43.154;25.658;2023-03-20T14:26:51;100602.50;;;20.88
76713;BMP280;65640;43.154;25.658;2023-03-20T14:34:50;100593.06;;;20.78
76713;BMP280;65640;43.154;25.658;2023-03-20T14:40:14;100587.31;;;20.76
76713;BMP280;65640;43.154;25.658;2023-03-20T14:43:05;100587.75;;;20.78
76713;BMP280;65640;43.154;25.658;2023-03-20T14:45:45;100580.13;;;20.77
76713;BMP280;65640;43.154;25.658;2023-03-20T14:48:36;100581.66;;;20.78
76713;BMP280;65640;43.154;25.658;2023-03-20T14:51:36;100579.28;;;20.73
76713;BMP280;65640;43.154;25.658;2023-03-20T14:54:26;100584.88;;;20.83
76713;BMP280;65640;43.154;25.658;2023-03-20T14:56:52;100575.44;;;20.74
76713;BMP280;65640;43.154;25.658;2023-03-20T14:59:22;100579.28;;;20.73
76713;BMP280;65640;43.154;25.658;2023-03-20T15:02:01;100581.19;;;20.60
76713;BMP280;65640;43.154;25.658;2023-03-20T15:04:38;100571.31;;;20.61
76713;BMP280;65640;43.154;25.658;2023-03-20T15:07:14;100574.63;;;20.58
76713;BMP280;65640;43.154;25.658;2023-03-20T15:09:45;100563.03;;;20.50
76713;BMP280;65640;43.154;25.658;2023-03-20T15:12:14;100569.91;;;20.39
76713;BMP280;65640;43.154;25.658;2023-03-20T15:14:51;100570.13;;;20.34
76713;BMP280;65640;43.154;25.658;2023-03-20T15:17:24;100569.41;;;20.21
76713;BMP280;65640;43.154;25.658;2023-03-20T15:20:30;100569.72;;;20.20
76713;BMP280;65640;43.154;25.658;2023-03-20T15:22:51;100564.19;;;20.25
76713;BMP280;65640;43.154;25.658;2023-03-20T15:25:18;100570.84;;;20.19
76713;BMP280;65640;43.154;25.658;2023-03-20T15:27:44;100565.97;;;20.09
76713;BMP280;65640;43.154;25.658;2023-03-20T15:30:13;100574.06;;;20.00
76713;BMP280;65640;43.154;25.658;2023-03-20T15:32:39;100565.72;;;19.89
76713;BMP280;65640;43.154;25.658;2023-03-20T15:35:13;100570.50;;;19.84
76713;BMP280;65640;43.154;25.658;2023-03-20T15:37:42;100573.28;;;19.75
76713;BMP280;65640;43.154;25.658;2023-03-20T15:40:20;100564.09;;;19.61
76713;BMP280;65640;43.154;25.658;2023-03-20T15:42:55;100560.16;;;19.46
76713;BMP280;65640;43.154;25.658;2023-03-20T15:45:29;100563.03;;;19.41
76713;BMP280;65640;43.154;25.658;2023-03-20T15:48:06;100560.47;;;19.32
76713;BMP280;65640;43.154;25.658;2023-03-20T15:50:39;100557.34;;;19.18
76713;BMP280;65640;43.154;25.658;2023-03-20T15:53:07;100561.38;;;19.04
76713;BMP280;65640;43.154;25.658;2023-03-20T15:55:36;100560.13;;;19.01
76713;BMP280;65640;43.154;25.658;2023-03-20T15:58:02;100555.44;;;18.86
76713;BMP280;65640;43.154;25.658;2023-03-20T16:00:29;100558.47;;;18.76
76713;BMP280;65640;43.154;25.658;2023-03-20T16:02:55;100557.19;;;18.61
76713;BMP280;65640;43.154;25.658;2023-03-20T16:05:25;100560.88;;;18.48
76713;BMP280;65640;43.154;25.658;2023-03-20T16:07:51;100562.19;;;18.33
76713;BMP280;65640;43.154;25.658;2023-03-20T16:10:29;100561.97;;;18.18
76713;BMP280;65640;43.154;25.658;2023-03-20T16:12:56;100561.63;;;17.99
76713;BMP280;65640;43.154;25.658;2023-03-20T16:15:22;100566.47;;;17.88
76713;BMP280;65640;43.154;25.658;2023-03-20T16:17:51;100567.59;;;17.70
76713;BMP280;65640;43.154;25.658;2023-03-20T16:20:18;100572.03;;;17.57
76713;BMP280;65640;43.154;25.658;2023-03-20T16:22:44;100574.22;;;17.38